sensor_id;sensor_type;location;lat;lon;timestamp;P1;durP1;ratioP1;P2;durP2;ratioP2
34497;SDS011;20744;50.938;7.286;2023-11-21T00:00:53;17.55;;;7.70;;
34497;SDS011;20744;50.938;7.286;2023-11-21T00:03:20;16.63;;;7.50;;
34497;SDS011;20744;50.938;7.286;2023-11-21T00:05:48;12.63;;;7.65;;
34497;SDS011;20744;50.938;7.286;2023-11-21T00:08:15;15.10;;;7.57;;
34497;SDS011;20744;50.938;7.286;2023-11-21T00:10:43;14.60;;;8.02;;
34497;SDS011;20744;50.938;7.286;2023-11-21T00:13:10;15.48;;;8.65;;
34497;SDS011;20744;50.938;7.286;2023-11-21T00:15:39;16.00;;;8.27;;
34497;SDS011;20744;50.938;7.286;2023-11-21T00:18:07;15.70;;;8.35;;
34497;SDS011;20744;50.938;7.286;2023-11-21T00:20:35;16.25;;;8.50;;
34497;SDS011;20744;50.938;7.286;2023-11-21T00:23:02;18.98;;;8.30;;
34497;SDS011;20744;50.938;7.286;2023-11-21T00:25:29;14.93;;;7.60;;
34497;SDS011;20744;50.938;7.286;2023-11-21T00:27:57;16.23;;;8.18;;
34497;SDS011;20744;50.938;7.286;2023-11-21T00:30:26;15.07;;;8.00;;
34497;SDS011;20744;50.938;7.286;2023-11-21T00:32:55;12.77;;;7.53;;
34497;SDS011;20744;50.938;7.286;2023-11-21T00:35:22;16.73;;;8.00;;
34497;SDS011;20744;50.938;7.286;2023-11-21T00:37:49;13.73;;;8.25;;
34497;SDS011;20744;50.938;7.286;2023-11-21T00:40:17;17.35;;;7.88;;
34497;SDS011;20744;50.938;7.286;2023-11-21T00:42:46;15.88;;;8.10;;
34497;SDS011;20744;50.938;7.286;2023-11-21T00:45:13;16.90;;;8.55;;
34497;SDS011;20744;50.938;7.286;2023-11-21T00:47:42;22.65;;;9.05;;
34497;SDS011;20744;50.938;7.286;2023-11-21T00:50:11;15.50;;;8.60;;
34497;SDS011;20744;50.938;7.286;2023-11-21T00:52:38;21.20;;;10.30;;
34497;SDS011;20744;50.938;7.286;2023-11-21T00:55:05;17.10;;;9.80;;
34497;SDS011;20744;50.938;7.286;2023-11-21T00:57:33;22.83;;;12.00;;
34497;SDS011;20744;50.938;7.286;2023-11-21T01:00:00;18.80;;;10.20;;
34497;SDS011;20744;50.938;7.286;2023-11-21T01:02:31;22.70;;;11.02;;
34497;SDS011;20744;50.938;7.286;2023-11-21T01:05:00;20.83;;;11.65;;
34497;SDS011;20744;50.938;7.286;2023-11-21T01:07:30;18.80;;;10.40;;
34497;SDS011;20744;50.938;7.286;2023-11-21T01:09:57;23.45;;;10.90;;
34497;SDS011;20744;50.938;7.286;2023-11-21T01:12:24;18.40;;;10.20;;
34497;SDS011;20744;50.938;7.286;2023-11-21T01:14:52;20.17;;;11.13;;
34497;SDS011;20744;50.938;7.286;2023-11-21T01:17:19;18.92;;;10.20;;
34497;SDS011;20744;50.938;7.286;2023-11-21T01:19:47;21.95;;;11.40;;
34497;SDS011;20744;50.938;7.286;2023-11-21T01:22:15;23.33;;;11.60;;
34497;SDS011;20744;50.938;7.286;2023-11-21T01:24:44;19.95;;;11.73;;
34497;SDS011;20744;50.938;7.286;2023-11-21T01:27:11;21.55;;;11.43;;
34497;SDS011;20744;50.938;7.286;2023-11-21T01:29:38;18.70;;;10.95;;
34497;SDS011;20744;50.938;7.286;2023-11-21T01:32:06;22.50;;;11.52;;
34497;SDS011;20744;50.938;7.286;2023-11-21T01:34:35;24.42;;;11.82;;
34497;SDS011;20744;50.938;7.286;2023-11-21T01:37:02;18.27;;;10.77;;
34497;SDS011;20744;50.938;7.286;2023-11-21T01:39:30;23.75;;;12.15;;
34497;SDS011;20744;50.938;7.286;2023-11-21T01:41:59;16.13;;;10.65;;
34497;SDS011;20744;50.938;7.286;2023-11-21T01:44:26;22.05;;;10.77;;
34497;SDS011;20744;50.938;7.286;2023-11-21T01:46:54;19.45;;;11.07;;
34497;SDS011;20744;50.938;7.286;2023-11-21T01:49:22;22.48;;;10.43;;
34497;SDS011;20744;50.938;7.286;2023-11-21T01:51:50;22.17;;;10.65;;
34497;SDS011;20744;50.938;7.286;2023-11-21T01:54:20;18.63;;;11.50;;
34497;SDS011;20744;50.938;7.286;2023-11-21T01:56:47;21.25;;;11.02;;
34497;SDS011;20744;50.938;7.286;2023-11-21T01:59:19;16.25;;;9.70;;
34497;SDS011;20744;50.938;7.286;2023-11-21T02:01:47;20.88;;;10.02;;
34497;SDS011;20744;50.938;7.286;2023-11-21T02:04:15;17.77;;;10.57;;
34497;SDS011;20744;50.938;7.286;2023-11-21T02:06:42;17.90;;;10.30;;
34497;SDS011;20744;50.938;7.286;2023-11-21T02:09:10;27.60;;;12.45;;
34497;SDS011;20744;50.938;7.286;2023-11-21T02:11:43;26.02;;;10.98;;
34497;SDS011;20744;50.938;7.286;2023-11-21T02:14:10;16.63;;;10.55;;
34497;SDS011;20744;50.938;7.286;2023-11-21T02:16:40;21.88;;;10.70;;
34497;SDS011;20744;50.938;7.286;2023-11-21T02:19:09;22.88;;;10.90;;
34497;SDS011;20744;50.938;7.286;2023-11-21T02:21:38;18.90;;;10.25;;
34497;SDS011;20744;50.938;7.286;2023-11-21T02:24:07;20.65;;;11.10;;
34497;SDS011;20744;50.938;7.286;2023-11-21T02:26:35;29.20;;;12.32;;
34497;SDS011;20744;50.938;7.286;2023-11-21T02:29:02;23.73;;;10.95;;
34497;SDS011;20744;50.938;7.286;2023-11-21T02:31:30;20.13;;;10.55;;
34497;SDS011;20744;50.938;7.286;2023-11-21T02:33:58;16.48;;;10.80;;
34497;SDS011;20744;50.938;7.286;2023-11-21T02:36:26;21.83;;;11.45;;
34497;SDS011;20744;50.938;7.286;2023-11-21T02:38:55;20.55;;;11.52;;
34497;SDS011;20744;50.938;7.286;2023-11-21T02:41:24;19.67;;;11.07;;
34497;SDS011;20744;50.938;7.286;2023-11-21T02:43:51;19.02;;;9.73;;
34497;SDS011;20744;50.938;7.286;2023-11-21T02:46:18;21.13;;;10.93;;
34497;SDS011;20744;50.938;7.286;2023-11-21T02:48:45;20.88;;;9.90;;
34497;SDS011;20744;50.938;7.286;2023-11-21T02:51:12;19.38;;;11.10;;
34497;SDS011;20744;50.938;7.286;2023-11-21T02:53:41;21.92;;;10.38;;
34497;SDS011;20744;50.938;7.286;2023-11-21T02:56:12;20.13;;;11.25;;
34497;SDS011;20744;50.938;7.286;2023-11-21T02:58:42;24.73;;;11.57;;
34497;SDS011;20744;50.938;7.286;2023-11-21T03:01:09;20.05;;;11.25;;
34497;SDS011;20744;50.938;7.286;2023-11-21T03:03:38;17.05;;;10.70;;
34497;SDS011;20744;50.938;7.286;2023-11-21T03:06:07;17.70;;;11.25;;
34497;SDS011;20744;50.938;7.286;2023-11-21T03:08:34;22.83;;;12.80;;
34497;SDS011;20744;50.938;7.286;2023-11-21T03:11:01;22.85;;;12.27;;
34497;SDS011;20744;50.938;7.286;2023-11-21T03:13:29;21.35;;;12.10;;
34497;SDS011;20744;50.938;7.286;2023-11-21T03:15:57;22.10;;;12.52;;
34497;SDS011;20744;50.938;7.286;2023-11-21T03:18:25;31.33;;;13.38;;
34497;SDS011;20744;50.938;7.286;2023-11-21T03:20:54;32.40;;;13.25;;
34497;SDS011;20744;50.938;7.286;2023-11-21T03:23:21;32.63;;;13.20;;
34497;SDS011;20744;50.938;7.286;2023-11-21T03:25:49;24.30;;;13.05;;
34497;SDS011;20744;50.938;7.286;2023-11-21T03:28:16;27.58;;;13.75;;
34497;SDS011;20744;50.938;7.286;2023-11-21T03:30:43;23.25;;;12.07;;
34497;SDS011;20744;50.938;7.286;2023-11-21T03:33:12;29.05;;;13.80;;
34497;SDS011;20744;50.938;7.286;2023-11-21T03:35:40;40.13;;;14.05;;
34497;SDS011;20744;50.938;7.286;2023-11-21T03:38:09;20.55;;;12.60;;
34497;SDS011;20744;50.938;7.286;2023-11-21T03:40:37;27.02;;;12.65;;
34497;SDS011;20744;50.938;7.286;2023-11-21T03:43:05;22.85;;;13.20;;
34497;SDS011;20744;50.938;7.286;2023-11-21T03:45:32;24.65;;;13.77;;
34497;SDS011;20744;50.938;7.286;2023-11-21T03:47:59;25.58;;;13.60;;
34497;SDS011;20744;50.938;7.286;2023-11-21T03:50:28;26.55;;;13.25;;
34497;SDS011;20744;50.938;7.286;2023-11-21T03:52:55;25.63;;;13.52;;
34497;SDS011;20744;50.938;7.286;2023-11-21T03:55:22;25.92;;;13.02;;
34497;SDS011;20744;50.938;7.286;2023-11-21T03:57:50;27.58;;;13.65;;
34497;SDS011;20744;50.938;7.286;2023-11-21T04:00:17;29.10;;;14.27;;
34497;SDS011;20744;50.938;7.286;2023-11-21T04:02:46;23.83;;;13.15;;
34497;SDS011;20744;50.938;7.286;2023-11-21T04:05:13;32.08;;;13.57;;
34497;SDS011;20744;50.938;7.286;2023-11-21T04:07:42;22.60;;;12.75;;
34497;SDS011;20744;50.938;7.286;2023-11-21T04:10:09;25.23;;;13.60;;
34497;SDS011;20744;50.938;7.286;2023-11-21T04:12:38;27.17;;;13.95;;
34497;SDS011;20744;50.938;7.286;2023-11-21T04:15:06;24.70;;;14.20;;
34497;SDS011;20744;50.938;7.286;2023-11-21T04:17:35;30.58;;;14.70;;
34497;SDS011;20744;50.938;7.286;2023-11-21T04:20:02;30.30;;;14.32;;
34497;SDS011;20744;50.938;7.286;2023-11-21T04:22:33;30.35;;;16.55;;
34497;SDS011;20744;50.938;7.286;2023-11-21T04:25:02;36.75;;;18.08;;
34497;SDS011;20744;50.938;7.286;2023-11-21T04:27:29;35.40;;;18.00;;
34497;SDS011;20744;50.938;7.286;2023-11-21T04:29:57;32.42;;;18.27;;
34497;SDS011;20744;50.938;7.286;2023-11-21T04:32:24;30.35;;;16.23;;
34497;SDS011;20744;50.938;7.286;2023-11-21T04:34:51;33.70;;;15.43;;
34497;SDS011;20744;50.938;7.286;2023-11-21T04:37:19;30.75;;;16.00;;
34497;SDS011;20744;50.938;7.286;2023-11-21T04:39:46;36.15;;;17.58;;
34497;SDS011;20744;50.938;7.286;2023-11-21T04:42:15;38.17;;;18.40;;
34497;SDS011;20744;50.938;7.286;2023-11-21T04:44:43;29.38;;;15.70;;
34497;SDS011;20744;50.938;7.286;2023-11-21T04:47:10;31.00;;;15.90;;
34497;SDS011;20744;50.938;7.286;2023-11-21T04:49:37;28.20;;;15.65;;
34497;SDS011;20744;50.938;7.286;2023-11-21T04:52:04;24.52;;;13.95;;
34497;SDS011;20744;50.938;7.286;2023-11-21T04:54:32;28.55;;;14.55;;
34497;SDS011;20744;50.938;7.286;2023-11-21T04:57:00;32.78;;;14.52;;
34497;SDS011;20744;50.938;7.286;2023-11-21T04:59:30;30.73;;;16.60;;
34497;SDS011;20744;50.938;7.286;2023-11-21T05:01:57;29.33;;;15.05;;
34497;SDS011;20744;50.938;7.286;2023-11-21T05:04:25;25.42;;;15.45;;
34497;SDS011;20744;50.938;7.286;2023-11-21T05:06:55;33.47;;;16.25;;
34497;SDS011;20744;50.938;7.286;2023-11-21T05:09:22;28.60;;;15.48;;
34497;SDS011;20744;50.938;7.286;2023-11-21T05:11:49;27.08;;;14.60;;
34497;SDS011;20744;50.938;7.286;2023-11-21T05:14:18;28.35;;;15.70;;
34497;SDS011;20744;50.938;7.286;2023-11-21T05:16:47;29.83;;;14.63;;
34497;SDS011;20744;50.938;7.286;2023-11-21T05:19:15;28.75;;;15.10;;
34497;SDS011;20744;50.938;7.286;2023-11-21T05:21:43;27.23;;;14.60;;
34497;SDS011;20744;50.938;7.286;2023-11-21T05:24:11;27.80;;;13.82;;
34497;SDS011;20744;50.938;7.286;2023-11-21T05:26:38;22.33;;;12.55;;
34497;SDS011;20744;50.938;7.286;2023-11-21T05:29:05;24.77;;;13.40;;
34497;SDS011;20744;50.938;7.286;2023-11-21T05:31:33;23.60;;;13.38;;
34497;SDS011;20744;50.938;7.286;2023-11-21T05:34:03;25.63;;;13.65;;
34497;SDS011;20744;50.938;7.286;2023-11-21T05:36:30;35.85;;;13.75;;
34497;SDS011;20744;50.938;7.286;2023-11-21T05:38:58;30.30;;;15.50;;
34497;SDS011;20744;50.938;7.286;2023-11-21T05:41:26;25.60;;;13.85;;
34497;SDS011;20744;50.938;7.286;2023-11-21T05:43:53;25.30;;;13.60;;
34497;SDS011;20744;50.938;7.286;2023-11-21T05:46:20;23.77;;;13.80;;
34497;SDS011;20744;50.938;7.286;2023-11-21T05:48:47;23.13;;;14.05;;
34497;SDS011;20744;50.938;7.286;2023-11-21T05:51:16;22.63;;;13.48;;
34497;SDS011;20744;50.938;7.286;2023-11-21T05:53:43;20.00;;;12.85;;
34497;SDS011;20744;50.938;7.286;2023-11-21T05:56:11;33.50;;;15.48;;
34497;SDS011;20744;50.938;7.286;2023-11-21T05:58:39;27.38;;;13.98;;
34497;SDS011;20744;50.938;7.286;2023-11-21T06:01:06;24.67;;;14.00;;
34497;SDS011;20744;50.938;7.286;2023-11-21T06:03:34;31.13;;;14.68;;
34497;SDS011;20744;50.938;7.286;2023-11-21T06:06:02;29.75;;;14.98;;
34497;SDS011;20744;50.938;7.286;2023-11-21T06:08:31;30.17;;;14.68;;
34497;SDS011;20744;50.938;7.286;2023-11-21T06:10:58;29.15;;;14.48;;
34497;SDS011;20744;50.938;7.286;2023-11-21T06:13:25;29.17;;;15.02;;
34497;SDS011;20744;50.938;7.286;2023-11-21T06:15:56;34.17;;;15.23;;
34497;SDS011;20744;50.938;7.286;2023-11-21T06:18:29;26.05;;;14.15;;
34497;SDS011;20744;50.938;7.286;2023-11-21T06:21:00;32.35;;;15.55;;
34497;SDS011;20744;50.938;7.286;2023-11-21T06:23:27;31.42;;;14.57;;
34497;SDS011;20744;50.938;7.286;2023-11-21T06:25:55;38.65;;;14.77;;
34497;SDS011;20744;50.938;7.286;2023-11-21T06:28:23;33.78;;;13.82;;
34497;SDS011;20744;50.938;7.286;2023-11-21T06:30:50;31.92;;;14.60;;
34497;SDS011;20744;50.938;7.286;2023-11-21T06:33:18;42.47;;;16.23;;
34497;SDS011;20744;50.938;7.286;2023-11-21T06:35:46;56.53;;;18.45;;
34497;SDS011;20744;50.938;7.286;2023-11-21T06:38:15;60.00;;;18.58;;
34497;SDS011;20744;50.938;7.286;2023-11-21T06:40:42;40.70;;;17.35;;
34497;SDS011;20744;50.938;7.286;2023-11-21T06:43:12;33.55;;;17.23;;
34497;SDS011;20744;50.938;7.286;2023-11-21T06:45:39;38.97;;;17.55;;
34497;SDS011;20744;50.938;7.286;2023-11-21T06:48:06;38.10;;;17.48;;
34497;SDS011;20744;50.938;7.286;2023-11-21T06:50:34;35.55;;;17.55;;
34497;SDS011;20744;50.938;7.286;2023-11-21T06:53:01;34.35;;;17.38;;
34497;SDS011;20744;50.938;7.286;2023-11-21T06:55:31;41.72;;;18.00;;
34497;SDS011;20744;50.938;7.286;2023-11-21T06:57:59;38.97;;;17.27;;
34497;SDS011;20744;50.938;7.286;2023-11-21T07:00:28;37.10;;;17.38;;
34497;SDS011;20744;50.938;7.286;2023-11-21T07:02:55;31.98;;;16.17;;
34497;SDS011;20744;50.938;7.286;2023-11-21T07:05:22;41.25;;;16.42;;
34497;SDS011;20744;50.938;7.286;2023-11-21T07:07:50;36.85;;;16.83;;
34497;SDS011;20744;50.938;7.286;2023-11-21T07:10:19;89.35;;;17.55;;
34497;SDS011;20744;50.938;7.286;2023-11-21T07:12:46;106.22;;;17.88;;
34497;SDS011;20744;50.938;7.286;2023-11-21T07:15:13;36.38;;;16.63;;
34497;SDS011;20744;50.938;7.286;2023-11-21T07:17:42;58.55;;;16.85;;
34497;SDS011;20744;50.938;7.286;2023-11-21T07:20:10;37.13;;;17.05;;
34497;SDS011;20744;50.938;7.286;2023-11-21T07:22:38;38.85;;;15.93;;
34497;SDS011;20744;50.938;7.286;2023-11-21T07:25:06;46.97;;;19.02;;
34497;SDS011;20744;50.938;7.286;2023-11-21T07:27:34;42.58;;;19.00;;
34497;SDS011;20744;50.938;7.286;2023-11-21T07:30:02;104.55;;;20.95;;
34497;SDS011;20744;50.938;7.286;2023-11-21T07:32:31;42.20;;;19.90;;
34497;SDS011;20744;50.938;7.286;2023-11-21T07:35:00;39.10;;;19.27;;
34497;SDS011;20744;50.938;7.286;2023-11-21T07:37:27;44.13;;;18.50;;
34497;SDS011;20744;50.938;7.286;2023-11-21T07:39:55;37.75;;;19.13;;
34497;SDS011;20744;50.938;7.286;2023-11-21T07:42:22;41.55;;;18.42;;
34497;SDS011;20744;50.938;7.286;2023-11-21T07:44:52;45.90;;;20.27;;
34497;SDS011;20744;50.938;7.286;2023-11-21T07:47:19;44.80;;;20.42;;
34497;SDS011;20744;50.938;7.286;2023-11-21T07:49:46;43.63;;;20.05;;
34497;SDS011;20744;50.938;7.286;2023-11-21T07:52:18;45.58;;;19.85;;
34497;SDS011;20744;50.938;7.286;2023-11-21T07:54:46;42.05;;;20.05;;
34497;SDS011;20744;50.938;7.286;2023-11-21T07:57:13;43.92;;;19.50;;
34497;SDS011;20744;50.938;7.286;2023-11-21T07:59:40;39.05;;;20.27;;
34497;SDS011;20744;50.938;7.286;2023-11-21T08:02:08;38.47;;;19.38;;
34497;SDS011;20744;50.938;7.286;2023-11-21T08:04:35;36.70;;;18.45;;
34497;SDS011;20744;50.938;7.286;2023-11-21T08:07:02;36.30;;;19.05;;
34497;SDS011;20744;50.938;7.286;2023-11-21T08:09:31;40.58;;;19.75;;
34497;SDS011;20744;50.938;7.286;2023-11-21T08:12:00;45.75;;;20.25;;
34497;SDS011;20744;50.938;7.286;2023-11-21T08:14:28;56.28;;;21.45;;
34497;SDS011;20744;50.938;7.286;2023-11-21T08:16:56;42.00;;;19.65;;
34497;SDS011;20744;50.938;7.286;2023-11-21T08:19:26;48.53;;;20.63;;
34497;SDS011;20744;50.938;7.286;2023-11-21T08:21:53;46.30;;;20.65;;
34497;SDS011;20744;50.938;7.286;2023-11-21T08:24:20;48.88;;;22.33;;
34497;SDS011;20744;50.938;7.286;2023-11-21T08:26:49;47.97;;;21.35;;
34497;SDS011;20744;50.938;7.286;2023-11-21T08:29:17;46.90;;;21.00;;
34497;SDS011;20744;50.938;7.286;2023-11-21T08:31:44;54.50;;;23.50;;
34497;SDS011;20744;50.938;7.286;2023-11-21T08:34:12;52.20;;;21.92;;
34497;SDS011;20744;50.938;7.286;2023-11-21T08:36:41;61.95;;;23.95;;
34497;SDS011;20744;50.938;7.286;2023-11-21T08:39:09;54.15;;;24.42;;
34497;SDS011;20744;50.938;7.286;2023-11-21T08:41:38;56.53;;;23.00;;
34497;SDS011;20744;50.938;7.286;2023-11-21T08:44:07;58.22;;;24.25;;
34497;SDS011;20744;50.938;7.286;2023-11-21T08:46:36;48.60;;;21.90;;
34497;SDS011;20744;50.938;7.286;2023-11-21T08:49:04;50.38;;;21.65;;
34497;SDS011;20744;50.938;7.286;2023-11-21T08:51:32;57.72;;;23.60;;
34497;SDS011;20744;50.938;7.286;2023-11-21T08:53:59;57.08;;;24.35;;
34497;SDS011;20744;50.938;7.286;2023-11-21T08:56:29;52.75;;;22.75;;
34497;SDS011;20744;50.938;7.286;2023-11-21T08:58:57;46.05;;;20.77;;
34497;SDS011;20744;50.938;7.286;2023-11-21T09:01:27;53.75;;;22.73;;
34497;SDS011;20744;50.938;7.286;2023-11-21T09:03:56;61.22;;;24.05;;
34497;SDS011;20744;50.938;7.286;2023-11-21T09:06:23;59.90;;;22.95;;
34497;SDS011;20744;50.938;7.286;2023-11-21T09:08:51;62.67;;;23.58;;
34497;SDS011;20744;50.938;7.286;2023-11-21T09:11:18;62.65;;;23.30;;
34497;SDS011;20744;50.938;7.286;2023-11-21T09:13:45;63.67;;;24.65;;
34497;SDS011;20744;50.938;7.286;2023-11-21T09:16:13;63.17;;;23.70;;
34497;SDS011;20744;50.938;7.286;2023-11-21T09:18:43;66.82;;;24.00;;
34497;SDS011;20744;50.938;7.286;2023-11-21T09:21:10;61.38;;;24.20;;
34497;SDS011;20744;50.938;7.286;2023-11-21T09:23:37;59.28;;;24.02;;
34497;SDS011;20744;50.938;7.286;2023-11-21T09:26:05;63.42;;;24.40;;
34497;SDS011;20744;50.938;7.286;2023-11-21T09:28:32;62.10;;;24.08;;
34497;SDS011;20744;50.938;7.286;2023-11-21T09:31:00;65.70;;;24.67;;
34497;SDS011;20744;50.938;7.286;2023-11-21T09:33:28;61.53;;;24.60;;
34497;SDS011;20744;50.938;7.286;2023-11-21T09:35:57;61.50;;;23.60;;
34497;SDS011;20744;50.938;7.286;2023-11-21T09:38:24;64.38;;;24.73;;
34497;SDS011;20744;50.938;7.286;2023-11-21T09:40:53;66.03;;;24.50;;
34497;SDS011;20744;50.938;7.286;2023-11-21T09:43:23;57.78;;;23.15;;
34497;SDS011;20744;50.938;7.286;2023-11-21T09:45:54;61.53;;;24.20;;
34497;SDS011;20744;50.938;7.286;2023-11-21T09:48:23;56.63;;;23.65;;
34497;SDS011;20744;50.938;7.286;2023-11-21T09:50:51;63.45;;;23.85;;
34497;SDS011;20744;50.938;7.286;2023-11-21T09:53:21;62.47;;;24.08;;
34497;SDS011;20744;50.938;7.286;2023-11-21T09:55:50;58.53;;;24.20;;
34497;SDS011;20744;50.938;7.286;2023-11-21T09:58:18;61.90;;;25.08;;
34497;SDS011;20744;50.938;7.286;2023-11-21T10:00:47;64.55;;;25.63;;
34497;SDS011;20744;50.938;7.286;2023-11-21T10:03:16;59.65;;;26.17;;
34497;SDS011;20744;50.938;7.286;2023-11-21T10:05:44;54.97;;;22.88;;
34497;SDS011;20744;50.938;7.286;2023-11-21T10:08:12;63.08;;;24.95;;
34497;SDS011;20744;50.938;7.286;2023-11-21T10:10:42;64.35;;;24.30;;
34497;SDS011;20744;50.938;7.286;2023-11-21T10:13:10;55.05;;;23.80;;
34497;SDS011;20744;50.938;7.286;2023-11-21T10:15:41;59.60;;;24.35;;
34497;SDS011;20744;50.938;7.286;2023-11-21T10:18:13;60.53;;;24.55;;
34497;SDS011;20744;50.938;7.286;2023-11-21T10:20:41;62.35;;;25.45;;
34497;SDS011;20744;50.938;7.286;2023-11-21T10:23:09;53.78;;;23.95;;
34497;SDS011;20744;50.938;7.286;2023-11-21T10:25:38;55.50;;;23.50;;
34497;SDS011;20744;50.938;7.286;2023-11-21T10:28:06;65.43;;;26.00;;
34497;SDS011;20744;50.938;7.286;2023-11-21T10:30:34;58.58;;;27.08;;
34497;SDS011;20744;50.938;7.286;2023-11-21T10:33:02;48.47;;;22.80;;
34497;SDS011;20744;50.938;7.286;2023-11-21T10:35:43;57.63;;;25.60;;
34497;SDS011;20744;50.938;7.286;2023-11-21T10:38:16;59.60;;;25.27;;
34497;SDS011;20744;50.938;7.286;2023-11-21T10:40:46;51.05;;;24.63;;
34497;SDS011;20744;50.938;7.286;2023-11-21T10:43:17;47.33;;;22.80;;
34497;SDS011;20744;50.938;7.286;2023-11-21T10:45:45;47.33;;;22.02;;
34497;SDS011;20744;50.938;7.286;2023-11-21T10:48:12;43.20;;;21.20;;
34497;SDS011;20744;50.938;7.286;2023-11-21T10:50:41;42.05;;;21.38;;
34497;SDS011;20744;50.938;7.286;2023-11-21T10:53:10;45.28;;;20.42;;
34497;SDS011;20744;50.938;7.286;2023-11-21T10:55:38;50.03;;;23.38;;
34497;SDS011;20744;50.938;7.286;2023-11-21T10:58:05;51.47;;;22.95;;
34497;SDS011;20744;50.938;7.286;2023-11-21T11:00:37;56.97;;;25.02;;
34497;SDS011;20744;50.938;7.286;2023-11-21T11:03:05;46.05;;;21.95;;
34497;SDS011;20744;50.938;7.286;2023-11-21T11:05:38;44.47;;;21.83;;
34497;SDS011;20744;50.938;7.286;2023-11-21T11:08:08;49.10;;;22.30;;
34497;SDS011;20744;50.938;7.286;2023-11-21T11:10:35;50.47;;;22.80;;
34497;SDS011;20744;50.938;7.286;2023-11-21T11:13:03;48.85;;;22.70;;
34497;SDS011;20744;50.938;7.286;2023-11-21T11:15:31;40.40;;;20.70;;
34497;SDS011;20744;50.938;7.286;2023-11-21T11:18:00;46.97;;;20.98;;
34497;SDS011;20744;50.938;7.286;2023-11-21T11:20:31;43.42;;;20.67;;
34497;SDS011;20744;50.938;7.286;2023-11-21T11:23:05;45.92;;;21.77;;
34497;SDS011;20744;50.938;7.286;2023-11-21T11:25:49;46.38;;;20.70;;
34497;SDS011;20744;50.938;7.286;2023-11-21T11:28:19;50.08;;;20.73;;
34497;SDS011;20744;50.938;7.286;2023-11-21T11:30:52;52.15;;;21.23;;
34497;SDS011;20744;50.938;7.286;2023-11-21T11:33:28;51.25;;;23.05;;
34497;SDS011;20744;50.938;7.286;2023-11-21T11:36:00;48.90;;;21.30;;
34497;SDS011;20744;50.938;7.286;2023-11-21T11:38:31;47.92;;;21.80;;
34497;SDS011;20744;50.938;7.286;2023-11-21T11:41:00;50.13;;;22.85;;
34497;SDS011;20744;50.938;7.286;2023-11-21T11:43:29;50.08;;;23.85;;
34497;SDS011;20744;50.938;7.286;2023-11-21T11:45:58;49.30;;;22.30;;
34497;SDS011;20744;50.938;7.286;2023-11-21T11:48:29;52.50;;;22.08;;
34497;SDS011;20744;50.938;7.286;2023-11-21T11:51:03;51.17;;;22.67;;
34497;SDS011;20744;50.938;7.286;2023-11-21T11:53:35;47.05;;;19.92;;
34497;SDS011;20744;50.938;7.286;2023-11-21T11:58:51;47.38;;;21.55;;
34497;SDS011;20744;50.938;7.286;2023-11-21T12:01:18;53.15;;;22.55;;
34497;SDS011;20744;50.938;7.286;2023-11-21T12:06:33;55.40;;;22.52;;
34497;SDS011;20744;50.938;7.286;2023-11-21T12:09:01;49.28;;;21.58;;
34497;SDS011;20744;50.938;7.286;2023-11-21T12:11:30;47.60;;;21.17;;
34497;SDS011;20744;50.938;7.286;2023-11-21T12:13:57;41.45;;;19.10;;
34497;SDS011;20744;50.938;7.286;2023-11-21T12:16:26;45.13;;;19.60;;
34497;SDS011;20744;50.938;7.286;2023-11-21T12:18:53;45.58;;;20.55;;
34497;SDS011;20744;50.938;7.286;2023-11-21T12:21:20;39.03;;;19.85;;
34497;SDS011;20744;50.938;7.286;2023-11-21T12:23:50;40.28;;;18.65;;
34497;SDS011;20744;50.938;7.286;2023-11-21T12:26:18;46.42;;;22.02;;
34497;SDS011;20744;50.938;7.286;2023-11-21T12:28:51;40.90;;;18.83;;
34497;SDS011;20744;50.938;7.286;2023-11-21T12:31:20;48.60;;;20.13;;
34497;SDS011;20744;50.938;7.286;2023-11-21T12:33:48;43.83;;;20.15;;
34497;SDS011;20744;50.938;7.286;2023-11-21T12:36:15;37.97;;;19.20;;
34497;SDS011;20744;50.938;7.286;2023-11-21T12:38:42;38.75;;;18.17;;
34497;SDS011;20744;50.938;7.286;2023-11-21T12:41:12;45.45;;;21.58;;
34497;SDS011;20744;50.938;7.286;2023-11-21T12:43:42;41.53;;;18.40;;
34497;SDS011;20744;50.938;7.286;2023-11-21T12:46:09;41.63;;;18.35;;
34497;SDS011;20744;50.938;7.286;2023-11-21T12:48:38;42.75;;;17.55;;
34497;SDS011;20744;50.938;7.286;2023-11-21T12:51:07;37.25;;;18.08;;
34497;SDS011;20744;50.938;7.286;2023-11-21T12:53:37;41.47;;;18.30;;
34497;SDS011;20744;50.938;7.286;2023-11-21T12:56:06;38.90;;;17.65;;
34497;SDS011;20744;50.938;7.286;2023-11-21T12:58:36;35.47;;;16.38;;
34497;SDS011;20744;50.938;7.286;2023-11-21T13:01:04;38.42;;;17.13;;
34497;SDS011;20744;50.938;7.286;2023-11-21T13:03:36;39.05;;;15.75;;
34497;SDS011;20744;50.938;7.286;2023-11-21T13:06:05;35.30;;;15.50;;
34497;SDS011;20744;50.938;7.286;2023-11-21T13:08:34;42.38;;;17.95;;
34497;SDS011;20744;50.938;7.286;2023-11-21T13:11:04;38.05;;;15.90;;
34497;SDS011;20744;50.938;7.286;2023-11-21T13:13:32;40.28;;;16.65;;
34497;SDS011;20744;50.938;7.286;2023-11-21T13:16:01;36.13;;;15.88;;
34497;SDS011;20744;50.938;7.286;2023-11-21T13:18:30;40.90;;;18.13;;
34497;SDS011;20744;50.938;7.286;2023-11-21T13:20:58;35.30;;;15.20;;
34497;SDS011;20744;50.938;7.286;2023-11-21T13:23:27;33.83;;;16.48;;
34497;SDS011;20744;50.938;7.286;2023-11-21T13:25:55;47.30;;;19.45;;
34497;SDS011;20744;50.938;7.286;2023-11-21T13:28:23;41.00;;;18.55;;
34497;SDS011;20744;50.938;7.286;2023-11-21T13:30:56;44.03;;;17.55;;
34497;SDS011;20744;50.938;7.286;2023-11-21T13:33:29;43.60;;;17.98;;
34497;SDS011;20744;50.938;7.286;2023-11-21T13:35:58;43.72;;;18.58;;
34497;SDS011;20744;50.938;7.286;2023-11-21T13:38:27;37.83;;;17.45;;
34497;SDS011;20744;50.938;7.286;2023-11-21T13:40:58;40.72;;;17.38;;
34497;SDS011;20744;50.938;7.286;2023-11-21T13:43:25;41.88;;;17.15;;
34497;SDS011;20744;50.938;7.286;2023-11-21T13:45:54;44.13;;;19.75;;
34497;SDS011;20744;50.938;7.286;2023-11-21T13:48:26;41.85;;;18.75;;
34497;SDS011;20744;50.938;7.286;2023-11-21T13:51:00;44.97;;;19.45;;
34497;SDS011;20744;50.938;7.286;2023-11-21T13:53:41;50.25;;;20.23;;
34497;SDS011;20744;50.938;7.286;2023-11-21T13:56:13;39.45;;;18.33;;
34497;SDS011;20744;50.938;7.286;2023-11-21T13:58:44;52.30;;;20.05;;
34497;SDS011;20744;50.938;7.286;2023-11-21T14:01:16;45.90;;;20.75;;
34497;SDS011;20744;50.938;7.286;2023-11-21T14:04:08;51.90;;;20.67;;
34497;SDS011;20744;50.938;7.286;2023-11-21T14:06:45;48.20;;;21.17;;
34497;SDS011;20744;50.938;7.286;2023-11-21T14:09:14;49.67;;;20.10;;
34497;SDS011;20744;50.938;7.286;2023-11-21T14:11:48;54.55;;;21.45;;
34497;SDS011;20744;50.938;7.286;2023-11-21T14:14:15;54.05;;;21.40;;
34497;SDS011;20744;50.938;7.286;2023-11-21T14:16:43;46.70;;;20.60;;
34497;SDS011;20744;50.938;7.286;2023-11-21T14:19:10;55.28;;;21.20;;
34497;SDS011;20744;50.938;7.286;2023-11-21T14:21:41;51.38;;;20.52;;
34497;SDS011;20744;50.938;7.286;2023-11-21T14:24:10;61.40;;;21.40;;
34497;SDS011;20744;50.938;7.286;2023-11-21T14:26:39;48.72;;;20.55;;
34497;SDS011;20744;50.938;7.286;2023-11-21T14:29:07;51.80;;;21.30;;
34497;SDS011;20744;50.938;7.286;2023-11-21T14:31:37;53.00;;;22.00;;
34497;SDS011;20744;50.938;7.286;2023-11-21T14:34:05;55.33;;;20.77;;
34497;SDS011;20744;50.938;7.286;2023-11-21T14:36:32;59.22;;;24.27;;